Danxian, China
Current Conditions -  °F | °C
As of 6:00 PM on Sunday 21 Dec 2014 (Local Time) from ZJHK Reporting Station
Overcast Overcast  
Wind Chill: 63°   Ceiling: 4600
Heat Index: 63°   Visibility: 6mi
Dew Point: 50°   Wind: 9mph
Humidity: 63%   Direction: 40°NE
Pressure: 30.15"   Gusts: NA
Location:  19.52°N, 109.58°E
Report Text: ZJHK 211000Z 04004MPS 9999 OVC046 17/10 Q1021 NOSIG
Loading
Personal Weather Stations






























Interactive Weather Map New forecast layout! Learn more

10-Day Weather Forecast

Advertisements
Track Severe Weather on mobile